Time;durP1;ratioP1;P1;durP2;ratioP2;P2;SDS_P1;SDS_P2;PMS_P1;PMS_P2;Temp;Humidity;BMP_temperature;BMP_pressure;BME280_temperature;BME280_humidity;BME280_pressure;Samples;Min_cycle;Max_cycle;Signal;HPM_P1;HPM_P2
2023/03/13 00:00:25;;;;;;;;;;;;;;;10.54;nan;99945.59;5013237;28;19918;-85
2023/03/13 00:02:50;;;;;;;;;;;;;;;10.55;nan;99940.13;5012433;28;20287;-85
2023/03/13 00:05:15;;;;;;;;;;;;;;;10.56;nan;99939.16;5010077;28;19929;-84
2023/03/13 00:07:41;;;;;;;;;;;;;;;10.56;nan;99943.63;4992913;28;19979;-85
2023/03/13 00:10:06;;;;;;;;;;;;;;;10.55;nan;99936.66;5012261;28;19924;-88
2023/03/13 00:12:31;;;;;;;;;;;;;;;10.58;nan;99938.97;5013414;28;20391;-85
2023/03/13 00:14:57;;;;;;;;;;;;;;;10.60;nan;99934.34;5016221;28;19925;-86
2023/03/13 00:17:22;;;;;;;;;;;;;;;10.61;nan;99930.72;5016008;28;20007;-86
2023/03/13 00:19:48;;;;;;;;;;;;;;;10.63;nan;99924.28;5015405;28;19917;-84
2023/03/13 00:22:14;;;;;;;;;;;;;;;10.66;nan;99922.31;5016471;28;19918;-85
2023/03/13 00:24:39;;;;;;;;;;;;;;;10.67;nan;99921.28;5016296;28;19941;-85
2023/03/13 00:27:05;;;;;;;;;;;;;;;10.66;nan;99917.00;5016197;28;19917;-86
2023/03/13 00:29:31;;;;;;;;;;;;;;;10.69;nan;99914.84;5015651;28;19918;-86
2023/03/13 00:31:56;;;;;;;;;;;;;;;10.70;nan;99911.22;5014468;28;19928;-85
2023/03/13 00:34:22;;;;;;;;;;;;;;;10.68;nan;99900.00;5023222;28;19917;-85
2023/03/13 00:36:48;;;;;;;;;;;;;;;10.68;nan;99891.19;5015925;28;20413;-85
2023/03/13 00:39:13;;;;;;;;;;;;;;;10.70;nan;99889.22;5014935;28;19945;-86
2023/03/13 00:41:38;;;;;;;;;;;;;;;10.71;nan;99894.34;5015152;28;19918;-86
2023/03/13 00:44:03;;;;;;;;;;;;;;;10.71;nan;99886.41;5017510;28;19917;-85
2023/03/13 00:46:29;;;;;;;;;;;;;;;10.71;nan;99875.03;5027872;28;19926;-85
2023/03/13 00:48:54;;;;;;;;;;;;;;;10.77;nan;99876.97;5018308;28;20016;-87
2023/03/13 00:51:21;;;;;;;;;;;;;;;10.74;nan;99870.22;5028515;28;19949;-86
2023/03/13 00:53:46;;;;;;;;;;;;;;;10.75;nan;99871.88;5020821;28;19926;-86
2023/03/13 00:56:13;;;;;;;;;;;;;;;10.79;nan;99862.59;5020845;28;19926;-87
2023/03/13 00:58:39;;;;;;;;;;;;;;;10.81;nan;99859.78;5017168;28;20166;-86
2023/03/13 01:01:15;;;;;;;;;;;;;;;10.83;nan;99857.81;5009844;28;19917;-86
2023/03/13 01:03:41;;;;;;;;;;;;;;;10.85;nan;99858.47;5019215;28;19921;-85
2023/03/13 01:06:07;;;;;;;;;;;;;;;10.83;nan;99848.03;5015747;28;19921;-86
2023/03/13 01:08:32;;;;;;;;;;;;;;;10.86;nan;99846.88;5023757;28;20028;-85
2023/03/13 01:10:58;;;;;;;;;;;;;;;10.87;nan;99845.03;5016033;28;19957;-86
2023/03/13 01:13:24;;;;;;;;;;;;;;;10.86;nan;99835.47;5022449;28;19957;-85
2023/03/13 01:15:49;;;;;;;;;;;;;;;10.88;nan;99828.19;5010884;28;19996;-86
2023/03/13 01:18:14;;;;;;;;;;;;;;;10.87;nan;99826.53;5011710;28;19948;-85
2023/03/13 01:20:40;;;;;;;;;;;;;;;10.90;nan;99819.09;5023492;28;19974;-85
2023/03/13 01:23:05;;;;;;;;;;;;;;;10.89;nan;99817.44;5026684;28;19956;-85
2023/03/13 01:25:30;;;;;;;;;;;;;;;10.91;nan;99802.22;5016628;28;19925;-84
2023/03/13 01:27:55;;;;;;;;;;;;;;;10.94;nan;99798.41;5026312;28;19928;-85
2023/03/13 01:30:20;;;;;;;;;;;;;;;10.96;nan;99799.06;5019367;28;19925;-85
2023/03/13 01:32:46;;;;;;;;;;;;;;;10.99;nan;99796.09;5025800;28;19925;-85
2023/03/13 01:35:11;;;;;;;;;;;;;;;11.03;nan;99787.59;5014254;28;19929;-85
2023/03/13 01:37:36;;;;;;;;;;;;;;;11.07;nan;99797.88;5009439;28;19926;-85
2023/03/13 01:40:02;;;;;;;;;;;;;;;11.07;nan;99788.09;5020525;28;20383;-86
2023/03/13 01:42:27;;;;;;;;;;;;;;;11.08;nan;99784.44;5012434;28;19964;-84
2023/03/13 01:44:53;;;;;;;;;;;;;;;11.08;nan;99778.34;5021000;28;19927;-85
2023/03/13 01:47:19;;;;;;;;;;;;;;;11.09;nan;99782.66;5013775;28;19957;-85
2023/03/13 01:49:45;;;;;;;;;;;;;;;11.07;nan;99774.88;5007462;28;20572;-84
2023/03/13 01:52:15;;;;;;;;;;;;;;;11.05;nan;99780.31;5008192;28;20334;-85
2023/03/13 01:54:44;;;;;;;;;;;;;;;11.00;nan;99765.97;5008906;28;20043;-85
2023/03/13 01:57:15;;;;;;;;;;;;;;;10.99;nan;99772.28;5012409;28;19931;-85
2023/03/13 01:59:43;;;;;;;;;;;;;;;10.99;nan;99767.00;5012114;28;19933;-84
2023/03/13 02:02:08;;;;;;;;;;;;;;;10.97;nan;99755.75;5016929;28;19921;-85
2023/03/13 02:04:43;;;;;;;;;;;;;;;10.96;nan;99748.78;5018295;28;19921;-85
2023/03/13 02:07:15;;;;;;;;;;;;;;;10.96;nan;99746.16;5020732;28;19922;-84
2023/03/13 02:09:42;;;;;;;;;;;;;;;10.83;nan;99736.16;5023791;28;19929;-85
2023/03/13 02:12:12;;;;;;;;;;;;;;;10.70;nan;99731.41;5009633;28;19929;-86
2023/03/13 02:14:40;;;;;;;;;;;;;;;10.45;nan;99741.25;5012553;28;19921;-86
2023/03/13 02:17:06;;;;;;;;;;;;;;;10.23;nan;99729.56;5011639;28;19928;-85
2023/03/13 02:19:34;;;;;;;;;;;;;;;10.02;nan;99724.81;5016593;28;19925;-85
2023/03/13 02:22:08;;;;;;;;;;;;;;;9.88;nan;99715.75;5009290;28;19921;-83
2023/03/13 02:24:33;;;;;;;;;;;;;;;9.81;nan;99703.38;5010542;28;19929;-85
2023/03/13 02:26:58;;;;;;;;;;;;;;;9.70;nan;99704.53;5014348;28;20284;-85
2023/03/13 02:29:24;;;;;;;;;;;;;;;9.68;nan;99704.72;5017057;28;19928;-85
2023/03/13 02:31:49;;;;;;;;;;;;;;;9.71;nan;99693.00;5015655;28;19941;-84
2023/03/13 02:34:17;;;;;;;;;;;;;;;9.68;nan;99685.44;5016204;28;19926;-86
2023/03/13 02:36:43;;;;;;;;;;;;;;;9.78;nan;99683.44;5012073;28;19928;-86
2023/03/13 02:39:14;;;;;;;;;;;;;;;9.88;nan;99678.78;5001647;28;20278;-86
2023/03/13 02:41:40;;;;;;;;;;;;;;;9.93;nan;99671.16;5004145;28;20012;-86
2023/03/13 02:44:06;;;;;;;;;;;;;;;9.99;nan;99667.06;5011792;28;19921;-84
2023/03/13 02:46:41;;;;;;;;;;;;;;;10.13;nan;99681.34;5008784;28;19929;-85
2023/03/13 02:49:17;;;;;;;;;;;;;;;10.19;nan;99668.28;5013000;28;19921;-85
2023/03/13 02:51:43;;;;;;;;;;;;;;;10.24;nan;99677.53;5009499;28;19922;-86
2023/03/13 02:54:10;;;;;;;;;;;;;;;10.20;nan;99671.75;5013306;28;19929;-86
2023/03/13 02:56:37;;;;;;;;;;;;;;;10.14;nan;99669.81;5006093;28;19937;-86
2023/03/13 02:59:02;;;;;;;;;;;;;;;10.00;nan;99666.88;5008790;28;19956;-85
2023/03/13 03:01:27;;;;;;;;;;;;;;;9.96;nan;99660.28;5011920;28;19956;-87
2023/03/13 03:03:52;;;;;;;;;;;;;;;9.97;nan;99654.00;5010962;28;20441;-86
2023/03/13 03:06:18;;;;;;;;;;;;;;;10.04;nan;99640.94;5003302;28;19922;-88
2023/03/13 03:08:43;;;;;;;;;;;;;;;10.17;nan;99640.41;5012273;28;19925;-86
2023/03/13 03:11:12;;;;;;;;;;;;;;;10.23;nan;99639.72;5005450;28;19925;-87
2023/03/13 03:13:37;;;;;;;;;;;;;;;10.32;nan;99625.53;5009144;28;19922;-87
2023/03/13 03:16:06;;;;;;;;;;;;;;;10.40;nan;99630.75;5007161;28;19928;-88
2023/03/13 03:18:31;;;;;;;;;;;;;;;10.43;nan;99626.94;5009090;28;19921;-86
2023/03/13 03:20:56;;;;;;;;;;;;;;;10.48;nan;99629.06;5011452;28;19976;-86
2023/03/13 03:23:21;;;;;;;;;;;;;;;10.50;nan;99622.63;5009538;28;20282;-86
2023/03/13 03:25:46;;;;;;;;;;;;;;;10.50;nan;99619.97;5002100;28;19917;-86
2023/03/13 03:28:12;;;;;;;;;;;;;;;10.50;nan;99627.09;5009960;28;20392;-86
2023/03/13 03:30:37;;;;;;;;;;;;;;;10.50;nan;99629.72;5010257;28;19999;-85
2023/03/13 03:33:03;;;;;;;;;;;;;;;10.52;nan;99627.75;5008783;28;19926;-87
2023/03/13 03:35:28;;;;;;;;;;;;;;;10.54;nan;99625.75;5008272;28;19957;-87
2023/03/13 03:37:53;;;;;;;;;;;;;;;10.57;nan;99625.38;5022087;28;20472;-87
2023/03/13 03:40:20;;;;;;;;;;;;;;;10.60;nan;99627.69;5016206;28;19924;-86
2023/03/13 03:42:45;;;;;;;;;;;;;;;10.59;nan;99633.97;5009798;28;20068;-86
2023/03/13 03:45:10;;;;;;;;;;;;;;;10.62;nan;99642.38;5015429;28;20016;-87
2023/03/13 03:47:35;;;;;;;;;;;;;;;10.66;nan;99632.28;5020124;28;19949;-87
2023/03/13 03:50:02;;;;;;;;;;;;;;;10.66;nan;99634.09;5012510;28;20321;-86
2023/03/13 03:52:27;;;;;;;;;;;;;;;10.72;nan;99642.16;5004232;28;19932;-86
2023/03/13 03:54:52;;;;;;;;;;;;;;;10.81;nan;99637.63;5010735;28;19921;-86
2023/03/13 03:57:18;;;;;;;;;;;;;;;10.79;nan;99636.97;5008918;28;20268;-85
2023/03/13 03:59:43;;;;;;;;;;;;;;;10.81;nan;99641.09;5006624;28;19922;-86
2023/03/13 04:02:11;;;;;;;;;;;;;;;10.79;nan;99645.75;4999604;28;19929;-86
2023/03/13 04:04:36;;;;;;;;;;;;;;;10.81;nan;99651.69;5007059;28;20012;-86
2023/03/13 04:07:01;;;;;;;;;;;;;;;10.79;nan;99640.44;5019924;28;20008;-86
2023/03/13 04:09:27;;;;;;;;;;;;;;;10.80;nan;99636.81;5015626;28;19944;-87
2023/03/13 04:11:52;;;;;;;;;;;;;;;10.79;nan;99635.16;5015066;28;19921;-87
2023/03/13 04:14:17;;;;;;;;;;;;;;;10.78;nan;99640.63;5021791;28;20600;-86
2023/03/13 04:16:42;;;;;;;;;;;;;;;10.81;nan;99635.81;5015782;28;19925;-87
2023/03/13 04:19:07;;;;;;;;;;;;;;;10.81;nan;99629.72;5020051;28;20687;-86
2023/03/13 04:21:33;;;;;;;;;;;;;;;10.82;nan;99623.41;5013859;28;19961;-86
2023/03/13 04:23:58;;;;;;;;;;;;;;;10.81;nan;99619.94;5026305;28;19921;-85
2023/03/13 04:26:23;;;;;;;;;;;;;;;10.87;nan;99614.94;5032613;28;19928;-87
2023/03/13 04:28:48;;;;;;;;;;;;;;;10.88;nan;99609.50;5029717;28;19928;-86
2023/03/13 04:31:13;;;;;;;;;;;;;;;10.87;nan;99610.50;5026529;28;19944;-87
2023/03/13 04:33:38;;;;;;;;;;;;;;;10.91;nan;99610.97;5027004;28;20008;-87
2023/03/13 04:36:04;;;;;;;;;;;;;;;10.90;nan;99620.72;5032560;28;20441;-86
2023/03/13 04:38:29;;;;;;;;;;;;;;;10.91;nan;99608.31;5024522;28;19921;-87
2023/03/13 04:40:54;;;;;;;;;;;;;;;10.92;nan;99605.50;5024383;28;19971;-86
2023/03/13 04:43:19;;;;;;;;;;;;;;;10.93;nan;99608.97;5025036;28;19933;-88
2023/03/13 04:45:45;;;;;;;;;;;;;;;10.95;nan;99601.69;5015069;28;19921;-87
2023/03/13 04:48:10;;;;;;;;;;;;;;;10.93;nan;99599.19;5023715;28;20010;-87
2023/03/13 04:50:35;;;;;;;;;;;;;;;10.95;nan;99597.22;5022295;28;20060;-88
2023/03/13 04:53:01;;;;;;;;;;;;;;;10.98;nan;99606.59;5012621;28;19925;-86
2023/03/13 04:55:26;;;;;;;;;;;;;;;10.98;nan;99593.38;5020942;28;19983;-87
2023/03/13 04:57:51;;;;;;;;;;;;;;;10.96;nan;99605.97;5021983;28;20428;-87
2023/03/13 05:00:16;;;;;;;;;;;;;;;10.98;nan;99606.59;5014099;28;20290;-88
2023/03/13 05:02:42;;;;;;;;;;;;;;;10.98;nan;99594.19;5017892;28;19922;-86
2023/03/13 05:05:07;;;;;;;;;;;;;;;11.00;nan;99594.03;4997532;28;19918;-86
2023/03/13 05:07:32;;;;;;;;;;;;;;;10.95;nan;99591.91;4994698;28;19917;-87
2023/03/13 05:09:57;;;;;;;;;;;;;;;10.94;nan;99594.72;5006979;28;19922;-86
2023/03/13 05:12:23;;;;;;;;;;;;;;;10.96;nan;99595.38;4991322;28;19926;-86
2023/03/13 05:14:49;;;;;;;;;;;;;;;10.95;nan;99586.63;4999319;28;19917;-86
2023/03/13 05:17:16;;;;;;;;;;;;;;;10.95;nan;99591.09;5011011;28;20001;-86
2023/03/13 05:19:41;;;;;;;;;;;;;;;10.96;nan;99588.25;5013077;28;19929;-86
2023/03/13 05:22:06;;;;;;;;;;;;;;;10.97;nan;99589.09;5010542;28;19925;-86
2023/03/13 05:24:32;;;;;;;;;;;;;;;10.99;nan;99587.09;5010431;28;20389;-87
2023/03/13 05:26:57;;;;;;;;;;;;;;;11.00;nan;99583.44;5011549;28;19964;-86
2023/03/13 05:29:22;;;;;;;;;;;;;;;10.99;nan;99579.16;5010770;28;20288;-86
2023/03/13 05:31:47;;;;;;;;;;;;;;;10.98;nan;99570.38;5010076;28;19932;-86
2023/03/13 05:34:12;;;;;;;;;;;;;;;11.00;nan;99573.69;5011034;28;19928;-86
2023/03/13 05:36:38;;;;;;;;;;;;;;;11.05;nan;99560.75;5010195;28;19944;-87
2023/03/13 05:39:03;;;;;;;;;;;;;;;11.04;nan;99558.28;5020362;28;19929;-87
2023/03/13 05:41:28;;;;;;;;;;;;;;;11.02;nan;99558.47;5011531;28;19921;-87
2023/03/13 05:43:53;;;;;;;;;;;;;;;11.06;nan;99561.59;5018988;28;20024;-86
2023/03/13 05:46:18;;;;;;;;;;;;;;;11.05;nan;99562.56;5013888;28;19921;-86
2023/03/13 05:48:44;;;;;;;;;;;;;;;11.06;nan;99558.94;5017795;28;19921;-86
2023/03/13 05:51:09;;;;;;;;;;;;;;;11.10;nan;99562.03;5017350;28;19921;-86
2023/03/13 05:53:34;;;;;;;;;;;;;;;11.11;nan;99568.97;5023638;28;20407;-85
2023/03/13 05:56:00;;;;;;;;;;;;;;;11.12;nan;99570.63;5024691;28;19925;-86
2023/03/13 05:58:27;;;;;;;;;;;;;;;11.16;nan;99561.34;5029806;28;19936;-87
2023/03/13 06:00:52;;;;;;;;;;;;;;;11.17;nan;99550.56;5021941;28;19924;-89
2023/03/13 06:03:17;;;;;;;;;;;;;;;11.17;nan;99549.75;5022342;28;19921;-85
2023/03/13 06:05:43;;;;;;;;;;;;;;;11.21;nan;99546.56;5009120;28;19925;-88
2023/03/13 06:08:08;;;;;;;;;;;;;;;11.24;nan;99550.66;5022044;28;19980;-86
2023/03/13 06:10:33;;;;;;;;;;;;;;;11.30;nan;99535.88;5026987;28;19921;-87
2023/03/13 06:12:59;;;;;;;;;;;;;;;11.33;nan;99541.66;5023236;28;20273;-88
2023/03/13 06:15:24;;;;;;;;;;;;;;;11.30;nan;99541.16;5018831;28;19947;-85
2023/03/13 06:17:49;;;;;;;;;;;;;;;11.32;nan;99542.66;5026376;28;19928;-88
2023/03/13 06:20:18;;;;;;;;;;;;;;;11.39;nan;99537.44;5018923;28;20279;-86
2023/03/13 06:22:46;;;;;;;;;;;;;;;11.37;nan;99536.78;5029875;28;19925;-86
2023/03/13 06:25:15;;;;;;;;;;;;;;;11.46;nan;99531.25;5015082;28;19921;-86
2023/03/13 06:27:41;;;;;;;;;;;;;;;11.45;nan;99537.53;5018490;28;19922;-88
2023/03/13 06:30:10;;;;;;;;;;;;;;;11.51;nan;99545.75;5005645;28;19953;-86
2023/03/13 06:32:41;;;;;;;;;;;;;;;11.53;nan;99552.50;5001566;28;19976;-85
2023/03/13 06:35:09;;;;;;;;;;;;;;;11.56;nan;99562.75;5009631;28;20368;-86
2023/03/13 06:37:38;;;;;;;;;;;;;;;11.59;nan;99550.97;5009954;28;19925;-86
2023/03/13 06:40:06;;;;;;;;;;;;;;;11.62;nan;99542.66;5007978;28;19921;-86
2023/03/13 06:42:33;;;;;;;;;;;;;;;11.65;nan;99529.88;5010993;28;20012;-85
2023/03/13 06:45:04;;;;;;;;;;;;;;;11.69;nan;99520.56;5010843;28;19921;-87
2023/03/13 06:47:31;;;;;;;;;;;;;;;11.74;nan;99533.25;5018661;28;19921;-86
2023/03/13 06:49:56;;;;;;;;;;;;;;;11.78;nan;99507.25;5016231;28;19961;-87
2023/03/13 06:52:22;;;;;;;;;;;;;;;11.89;nan;99520.03;5001473;28;19931;-86
2023/03/13 06:54:48;;;;;;;;;;;;;;;11.89;nan;99510.28;5016984;28;19921;-86
2023/03/13 06:57:13;;;;;;;;;;;;;;;11.93;nan;99510.69;4990629;28;19921;-85
2023/03/13 06:59:49;;;;;;;;;;;;;;;11.96;nan;99507.66;5002747;28;19928;-85
2023/03/13 07:02:15;;;;;;;;;;;;;;;12.03;nan;99505.91;5017797;28;20458;-85
2023/03/13 07:04:40;;;;;;;;;;;;;;;12.08;nan;99500.06;5009820;28;20436;-85
2023/03/13 07:07:08;;;;;;;;;;;;;;;12.13;nan;99500.31;5014510;28;19976;-86
2023/03/13 07:09:39;;;;;;;;;;;;;;;12.13;nan;99505.63;5018027;28;19936;-86
2023/03/13 07:12:18;;;;;;;;;;;;;;;12.14;nan;99493.22;4999675;28;19968;-87
2023/03/13 07:14:48;;;;;;;;;;;;;;;12.18;nan;99486.50;5023249;28;19940;-87
2023/03/13 07:17:16;;;;;;;;;;;;;;;12.21;nan;99486.97;5005751;28;19929;-86
2023/03/13 07:19:44;;;;;;;;;;;;;;;12.22;nan;99479.84;5019480;28;20629;-86
2023/03/13 07:22:27;;;;;;;;;;;;;;;12.30;nan;99493.00;4992408;28;19976;-86
2023/03/13 07:24:56;;;;;;;;;;;;;;;12.30;nan;99493.00;5027776;28;19981;-86
2023/03/13 07:27:24;;;;;;;;;;;;;;;12.38;nan;99507.94;5025069;28;19929;-87
2023/03/13 07:29:49;;;;;;;;;;;;;;;12.38;nan;99503.47;5018196;28;20425;-86
2023/03/13 07:32:19;;;;;;;;;;;;;;;12.43;nan;99506.34;5030565;28;19922;-88
2023/03/13 07:34:47;;;;;;;;;;;;;;;12.49;nan;99529.47;5012858;28;20287;-87
2023/03/13 07:37:13;;;;;;;;;;;;;;;12.56;nan;99520.75;5003255;28;19921;-87
2023/03/13 07:39:41;;;;;;;;;;;;;;;12.62;nan;99533.25;5021324;28;19928;-88
2023/03/13 07:42:12;;;;;;;;;;;;;;;12.65;nan;99524.91;5003859;28;19918;-87
2023/03/13 07:44:37;;;;;;;;;;;;;;;12.67;nan;99539.63;5004943;28;20387;-88
2023/03/13 07:47:05;;;;;;;;;;;;;;;12.68;nan;99533.34;5014559;28;19924;-87
2023/03/13 07:49:34;;;;;;;;;;;;;;;12.68;nan;99532.50;5005813;28;19921;-88
2023/03/13 07:52:03;;;;;;;;;;;;;;;12.74;nan;99534.41;5004456;28;20382;-88
2023/03/13 07:54:36;;;;;;;;;;;;;;;12.72;nan;99531.09;5011985;28;19921;-88
2023/03/13 07:57:02;;;;;;;;;;;;;;;12.75;nan;99534.22;5014225;28;20440;-88
2023/03/13 07:59:37;;;;;;;;;;;;;;;12.77;nan;99530.53;5015272;28;19922;-89
2023/03/13 08:02:02;;;;;;;;;;;;;;;12.83;nan;99535.91;5011761;28;20303;-87
2023/03/13 08:04:27;;;;;;;;;;;;;;;12.86;nan;99538.19;5010769;28;20142;-87
2023/03/13 08:06:56;;;;;;;;;;;;;;;12.91;nan;99546.38;5013165;28;19929;-88
2023/03/13 08:09:24;;;;;;;;;;;;;;;12.91;nan;99540.25;5005564;28;19921;-88
2023/03/13 08:11:49;;;;;;;;;;;;;;;12.94;nan;99535.41;5004220;28;19952;-87
2023/03/13 08:14:15;;;;;;;;;;;;;;;12.95;nan;99525.59;5011463;28;20383;-87
2023/03/13 08:16:40;;;;;;;;;;;;;;;12.95;nan;99530.91;5012750;28;20081;-88
2023/03/13 08:19:05;;;;;;;;;;;;;;;12.94;nan;99519.47;5014176;28;20028;-89
2023/03/13 08:21:32;;;;;;;;;;;;;;;12.92;nan;99526.00;5006753;28;19917;-87
2023/03/13 08:24:01;;;;;;;;;;;;;;;12.98;nan;99519.09;5013062;28;19922;-88
2023/03/13 08:26:27;;;;;;;;;;;;;;;13.02;nan;99510.56;4997682;28;19945;-87
2023/03/13 08:28:54;;;;;;;;;;;;;;;13.02;nan;99509.75;5011967;28;19925;-88
2023/03/13 08:31:21;;;;;;;;;;;;;;;13.10;nan;99510.41;5012009;28;19972;-88
2023/03/13 08:33:53;;;;;;;;;;;;;;;13.10;nan;99515.72;5011993;28;20054;-88
2023/03/13 08:36:44;;;;;;;;;;;;;;;13.10;nan;99518.34;5010977;28;19918;-88
2023/03/13 08:39:13;;;;;;;;;;;;;;;13.07;nan;99518.75;4991826;28;19925;-88
2023/03/13 08:41:45;;;;;;;;;;;;;;;13.09;nan;99519.38;4992538;28;19917;-87
2023/03/13 08:44:12;;;;;;;;;;;;;;;13.09;nan;99526.53;4991927;28;20064;-88
2023/03/13 08:46:37;;;;;;;;;;;;;;;13.12;nan;99526.13;4982740;28;19921;-88
2023/03/13 08:49:06;;;;;;;;;;;;;;;13.13;nan;99528.63;4994598;28;19925;-87
2023/03/13 08:51:37;;;;;;;;;;;;;;;13.14;nan;99524.13;5008160;28;19918;-88
2023/03/13 08:54:09;;;;;;;;;;;;;;;13.14;nan;99529.44;5013278;28;19921;-87
2023/03/13 08:56:35;;;;;;;;;;;;;;;13.14;nan;99524.94;5011421;28;19917;-87
2023/03/13 08:59:06;;;;;;;;;;;;;;;13.17;nan;99519.22;5011750;28;19931;-87
2023/03/13 09:01:59;;;;;;;;;;;;;;;13.21;nan;99524.19;5011356;28;20299;-86
2023/03/13 09:04:24;;;;;;;;;;;;;;;13.25;nan;99531.56;5010753;28;19928;-87
2023/03/13 09:06:50;;;;;;;;;;;;;;;13.25;nan;99538.69;4998863;28;19921;-87
2023/03/13 09:09:15;;;;;;;;;;;;;;;13.29;nan;99546.09;5011472;28;19918;-88
2023/03/13 09:11:40;;;;;;;;;;;;;;;13.34;nan;99533.06;5011384;28;19928;-87
2023/03/13 09:14:09;;;;;;;;;;;;;;;13.40;nan;99522.69;5009719;28;19925;-87
2023/03/13 09:16:37;;;;;;;;;;;;;;;13.55;nan;99513.56;5011485;28;20397;-88
2023/03/13 09:19:05;;;;;;;;;;;;;;;13.73;nan;99523.69;5008951;28;19987;-85
2023/03/13 09:21:33;;;;;;;;;;;;;;;13.94;nan;99524.59;5000889;28;19929;-86
2023/03/13 09:23:59;;;;;;;;;;;;;;;13.99;nan;99532.78;5019548;28;19917;-87
2023/03/13 09:26:25;;;;;;;;;;;;;;;14.01;nan;99528.09;5007081;28;19924;-87
2023/03/13 09:28:54;;;;;;;;;;;;;;;13.99;nan;99527.47;5012166;28;19924;-87
2023/03/13 09:31:21;;;;;;;;;;;;;;;13.94;nan;99529.91;5013314;28;19929;-87
2023/03/13 09:33:47;;;;;;;;;;;;;;;13.86;nan;99528.25;5010566;28;20302;-87
2023/03/13 09:36:16;;;;;;;;;;;;;;;13.75;nan;99515.50;4997102;28;19929;-87
2023/03/13 09:38:44;;;;;;;;;;;;;;;13.75;nan;99531.47;4993600;28;19926;-87
2023/03/13 09:41:15;;;;;;;;;;;;;;;13.73;nan;99522.84;5011385;28;19946;-87
2023/03/13 09:43:41;;;;;;;;;;;;;;;13.74;nan;99524.50;5011022;28;20036;-86
2023/03/13 09:46:11;;;;;;;;;;;;;;;13.71;nan;99520.41;5005262;28;20007;-86
2023/03/13 09:48:58;;;;;;;;;;;;;;;13.71;nan;99509.78;5013625;28;19925;-87
2023/03/13 09:51:26;;;;;;;;;;;;;;;13.79;nan;99493.66;4996736;28;20231;-86
2023/03/13 09:54:08;;;;;;;;;;;;;;;13.94;nan;99482.06;4999387;28;19993;-87
2023/03/13 09:56:38;;;;;;;;;;;;;;;14.12;nan;99477.03;5003802;28;19925;-86
2023/03/13 09:59:21;;;;;;;;;;;;;;;14.19;nan;99464.56;5032749;28;19924;-87
2023/03/13 10:01:48;;;;;;;;;;;;;;;14.35;nan;99471.34;5010735;28;19918;-87
2023/03/13 10:04:29;;;;;;;;;;;;;;;14.33;nan;99469.91;5009873;28;20005;-88
2023/03/13 10:06:54;;;;;;;;;;;;;;;14.27;nan;99454.75;5008358;28;20553;-85
2023/03/13 10:09:27;;;;;;;;;;;;;;;14.20;nan;99452.91;5011979;28;19946;-86
2023/03/13 10:12:20;;;;;;;;;;;;;;;14.26;nan;99442.50;5007779;28;19944;-86
2023/03/13 10:14:57;;;;;;;;;;;;;;;14.94;nan;99463.63;5011173;28;19933;-87
2023/03/13 10:17:30;;;;;;;;;;;;;;;15.65;nan;99454.84;5008142;28;19921;-86
2023/03/13 10:20:10;;;;;;;;;;;;;;;15.98;nan;99451.25;5011994;28;19929;-87
2023/03/13 10:22:51;;;;;;;;;;;;;;;16.12;nan;99450.94;5000881;28;20019;-87
2023/03/13 10:25:25;;;;;;;;;;;;;;;16.18;nan;99446.59;5004757;28;20371;-87
2023/03/13 10:27:54;;;;;;;;;;;;;;;16.22;nan;99434.47;5012366;28;20011;-87
2023/03/13 10:30:27;;;;;;;;;;;;;;;16.12;nan;99437.63;4986934;28;20342;-86
2023/03/13 10:33:19;;;;;;;;;;;;;;;15.88;nan;99441.84;5010650;28;19926;-86
2023/03/13 10:35:47;;;;;;;;;;;;;;;15.70;nan;99433.72;5005932;28;19928;-86
2023/03/13 10:38:13;;;;;;;;;;;;;;;15.63;nan;99427.59;5000432;28;20020;-86
2023/03/13 10:40:41;;;;;;;;;;;;;;;15.85;nan;99431.63;5018806;28;20016;-86
2023/03/13 10:43:12;;;;;;;;;;;;;;;16.11;nan;99421.81;5012736;28;19921;-86
2023/03/13 10:45:38;;;;;;;;;;;;;;;16.30;nan;99422.72;5008830;28;20111;-86
2023/03/13 10:48:11;;;;;;;;;;;;;;;16.40;nan;99417.75;5007599;28;19917;-87
2023/03/13 10:50:40;;;;;;;;;;;;;;;16.38;nan;99419.00;5010506;28;19996;-86
2023/03/13 10:53:41;;;;;;;;;;;;;;;16.44;nan;99408.25;5009114;28;20008;-86
2023/03/13 10:56:09;;;;;;;;;;;;;;;16.49;nan;99412.94;4972249;28;20502;-87
2023/03/13 10:58:41;;;;;;;;;;;;;;;16.81;nan;99402.25;4986345;28;20299;-87
2023/03/13 11:01:15;;;;;;;;;;;;;;;17.12;nan;99388.75;4995828;28;19922;-87
2023/03/13 11:03:42;;;;;;;;;;;;;;;17.50;nan;99389.56;5011544;28;20266;-87
2023/03/13 11:06:21;;;;;;;;;;;;;;;17.63;nan;99379.50;5013471;28;19949;-87
2023/03/13 11:09:00;;;;;;;;;;;;;;;17.44;nan;99375.22;4996879;28;20398;-87
2023/03/13 11:11:29;;;;;;;;;;;;;;;17.33;nan;99376.00;5011419;28;19925;-87
2023/03/13 11:14:06;;;;;;;;;;;;;;;17.21;nan;99370.59;4993322;28;19929;-88
2023/03/13 11:16:38;;;;;;;;;;;;;;;17.17;nan;99359.50;4984433;28;19933;-87
2023/03/13 11:19:14;;;;;;;;;;;;;;;17.16;nan;99357.06;4999683;28;20311;-87
2023/03/13 11:21:48;;;;;;;;;;;;;;;17.34;nan;99335.69;5009958;28;20016;-87
2023/03/13 11:24:36;;;;;;;;;;;;;;;18.35;nan;99327.00;4995698;28;19968;-87
2023/03/13 11:27:25;;;;;;;;;;;;;;;19.69;nan;99326.09;5000877;28;19918;-87
2023/03/13 11:30:02;;;;;;;;;;;;;;;19.40;nan;99317.22;4974345;28;19921;-88
2023/03/13 11:32:37;;;;;;;;;;;;;;;19.40;nan;99303.81;4995485;28;19933;-86
2023/03/13 11:35:06;;;;;;;;;;;;;;;20.77;nan;99305.25;5000216;28;20010;-87
2023/03/13 11:37:34;;;;;;;;;;;;;;;20.49;nan;99300.81;5008822;28;19928;-88
2023/03/13 11:40:15;;;;;;;;;;;;;;;19.90;nan;99301.25;5002264;28;20370;-87
2023/03/13 11:42:47;;;;;;;;;;;;;;;19.29;nan;99281.38;5024776;28;20052;-88
2023/03/13 11:45:14;;;;;;;;;;;;;;;18.79;nan;99274.75;4992471;28;19940;-86
2023/03/13 11:47:46;;;;;;;;;;;;;;;18.49;nan;99263.38;5001760;28;19921;-86
2023/03/13 11:50:11;;;;;;;;;;;;;;;18.33;nan;99268.38;5001945;28;19921;-86
2023/03/13 11:52:44;;;;;;;;;;;;;;;18.19;nan;99249.06;4980972;28;19924;-85
2023/03/13 11:55:15;;;;;;;;;;;;;;;18.10;nan;99250.47;5002370;28;20359;-85
2023/03/13 11:58:02;;;;;;;;;;;;;;;17.95;nan;99244.78;5008699;28;19928;-85
2023/03/13 12:00:36;;;;;;;;;;;;;;;17.90;nan;99237.44;5011591;28;19921;-86
2023/03/13 12:03:04;;;;;;;;;;;;;;;17.93;nan;99236.97;5013267;28;19945;-86
2023/03/13 12:05:36;;;;;;;;;;;;;;;18.19;nan;99224.19;5011372;28;19921;-85
2023/03/13 12:08:07;;;;;;;;;;;;;;;18.44;nan;99215.88;5012456;28;19921;-86
2023/03/13 12:10:38;;;;;;;;;;;;;;;18.76;nan;99204.75;5012653;28;19980;-86
2023/03/13 12:13:20;;;;;;;;;;;;;;;19.12;nan;99213.53;5013473;28;19917;-87
2023/03/13 12:15:48;;;;;;;;;;;;;;;19.17;nan;99206.38;5010558;28;19921;-87
2023/03/13 12:18:34;;;;;;;;;;;;;;;19.45;nan;99196.66;5000441;28;19968;-87
2023/03/13 12:21:18;;;;;;;;;;;;;;;19.67;nan;99194.09;5011566;28;20311;-87
2023/03/13 12:23:52;;;;;;;;;;;;;;;19.66;nan;99187.91;5009687;28;19925;-88
2023/03/13 12:26:24;;;;;;;;;;;;;;;19.69;nan;99179.41;4994662;28;19918;-87
2023/03/13 12:28:55;;;;;;;;;;;;;;;19.49;nan;99176.34;5005086;28;19964;-86
2023/03/13 12:31:20;;;;;;;;;;;;;;;19.40;nan;99180.50;5015720;28;19925;-86
2023/03/13 12:34:18;;;;;;;;;;;;;;;19.34;nan;99157.34;5016458;28;20355;-86
2023/03/13 12:36:59;;;;;;;;;;;;;;;19.10;nan;99165.53;4982121;28;19957;-86
2023/03/13 12:39:28;;;;;;;;;;;;;;;18.91;nan;99162.22;5011507;28;20011;-87
2023/03/13 12:42:07;;;;;;;;;;;;;;;18.95;nan;99150.00;5008187;28;19921;-87
2023/03/13 12:44:33;;;;;;;;;;;;;;;19.05;nan;99150.16;5014703;28;19929;-87
2023/03/13 12:47:07;;;;;;;;;;;;;;;19.14;nan;99131.84;5019978;28;19921;-85
2023/03/13 12:49:38;;;;;;;;;;;;;;;19.34;nan;99115.28;5019008;28;20008;-86
2023/03/13 12:52:31;;;;;;;;;;;;;;;19.34;nan;99126.00;5025729;28;19918;-86
2023/03/13 12:55:06;;;;;;;;;;;;;;;19.37;nan;99130.06;5013793;28;19921;-85
2023/03/13 12:57:38;;;;;;;;;;;;;;;19.40;nan;99124.19;5012749;28;20394;-86
2023/03/13 13:00:10;;;;;;;;;;;;;;;19.45;nan;99116.22;5012756;28;19921;-85
2023/03/13 13:02:36;;;;;;;;;;;;;;;19.48;nan;99100.47;5011229;28;19917;-86
2023/03/13 13:05:01;;;;;;;;;;;;;;;19.55;nan;99094.97;5011717;28;19921;-86
2023/03/13 13:07:28;;;;;;;;;;;;;;;19.61;nan;99093.97;5011294;28;19979;-86
2023/03/13 13:10:08;;;;;;;;;;;;;;;19.69;nan;99082.06;5010532;28;20316;-85
2023/03/13 13:12:34;;;;;;;;;;;;;;;19.82;nan;99084.38;4990281;28;20065;-86
2023/03/13 13:15:02;;;;;;;;;;;;;;;19.99;nan;99078.16;5006512;28;19936;-87